Main page
METAR-TAF:

METAR-TAF

Airports :

Leipzig/Halle Airport

Leipzig, Germany

latitude: 51-25N, longitude: 012-14E, elevation: 144 m

Current weather observation

The report was made 11 minutes ago, at 06:50 UTC
Wind 4 kt from the West/Southwest
Temperature 5°C
Humidity 87%
Pressure 1012 hPa
Visibility 10 km or more
no clouds below 1500 m and no cumulonimbus

METAR: EDDP 030650Z 25004KT CAVOK 05/03 Q1012 NOSIG

Time: 09:01 (07:01 UTC)

Forecast

The report was made 2 hours and 1 minutes ago, at 05:00 UTC
Forecast valid from 03 at 06 UTC to 04 at 06 UTC
Wind 12 kt from the West
Visibility 10 km or more
Scattered clouds at a height of 4500 ft
Becoming
from 03 at 16 UTC to 03 at 18 UTC
Wind 5 kt from the West/Southwest

TAF: EDDP 030500Z 0306/0406 26012KT 9999 SCT045 BECMG 0316/0318 25005KT

Weather observations and forecasts of more than 4000 airports (METAR and TAF reports).

The available stations are represented by yellow and red dots on the map.

Hover mouse over dot to see the name of the station.

Then click to see weather observations and forecasts.

To change the map : click on the green buttons with a black cross to zoom in, on the green button with a dash to zoom out, or on the green arrows for adjacent maps.


METAR-TAF: